sensor_id;sensor_type;location;lat;lon;timestamp;pressure;altitude;pressure_sealevel;temperature;humidity
54666;BME280;40566;50.006;36.180;2023-10-09T00:02:17;98693.22;;;5.27;53.24
54666;BME280;40566;50.006;36.180;2023-10-09T00:07:18;98689.03;;;5.23;53.34
54666;BME280;40566;50.006;36.180;2023-10-09T00:12:20;98705.06;;;5.32;54.36
54666;BME280;40566;50.006;36.180;2023-10-09T00:17:25;98696.09;;;5.13;54.39
54666;BME280;40566;50.006;36.180;2023-10-09T00:22:31;98697.06;;;5.07;54.58
54666;BME280;40566;50.006;36.180;2023-10-09T00:27:39;98709.19;;;5.01;54.62
54666;BME280;40566;50.006;36.180;2023-10-09T00:32:42;98734.13;;;4.94;54.71
54666;BME280;40566;50.006;36.180;2023-10-09T00:37:50;98729.88;;;4.91;54.98
54666;BME280;40566;50.006;36.180;2023-10-09T00:42:55;98742.81;;;4.87;55.08
54666;BME280;40566;50.006;36.180;2023-10-09T00:47:56;98733.69;;;4.73;55.42
54666;BME280;40566;50.006;36.180;2023-10-09T00:52:59;98735.41;;;4.73;55.27
54666;BME280;40566;50.006;36.180;2023-10-09T00:58:13;98748.22;;;4.73;55.47
54666;BME280;40566;50.006;36.180;2023-10-09T01:03:16;98737.09;;;4.74;55.40
54666;BME280;40566;50.006;36.180;2023-10-09T01:08:21;98745.47;;;4.82;55.33
54666;BME280;40566;50.006;36.180;2023-10-09T01:13:42;98756.41;;;4.90;55.13
54666;BME280;40566;50.006;36.180;2023-10-09T01:18:55;98763.94;;;4.98;55.10
54666;BME280;40566;50.006;36.180;2023-10-09T01:23:58;98764.78;;;4.99;55.39
54666;BME280;40566;50.006;36.180;2023-10-09T01:29:02;98767.97;;;5.08;55.37
54666;BME280;40566;50.006;36.180;2023-10-09T01:34:04;98772.13;;;5.14;55.34
54666;BME280;40566;50.006;36.180;2023-10-09T01:39:10;98776.34;;;5.16;55.36
54666;BME280;40566;50.006;36.180;2023-10-09T01:44:21;98781.34;;;5.23;55.32
54666;BME280;40566;50.006;36.180;2023-10-09T01:49:22;98785.66;;;5.21;55.49
54666;BME280;40566;50.006;36.180;2023-10-09T01:54:30;98779.75;;;5.17;55.71
54666;BME280;40566;50.006;36.180;2023-10-09T01:59:44;98779.84;;;5.14;55.71
54666;BME280;40566;50.006;36.180;2023-10-09T02:04:44;98786.44;;;5.24;55.77
54666;BME280;40566;50.006;36.180;2023-10-09T02:09:45;98791.69;;;5.20;56.03
54666;BME280;40566;50.006;36.180;2023-10-09T02:14:47;98793.31;;;5.22;55.88
54666;BME280;40566;50.006;36.180;2023-10-09T02:19:48;98799.41;;;5.18;56.00
54666;BME280;40566;50.006;36.180;2023-10-09T02:24:49;98813.84;;;5.22;56.23
54666;BME280;40566;50.006;36.180;2023-10-09T02:29:59;98822.97;;;5.34;56.86
54666;BME280;40566;50.006;36.180;2023-10-09T02:35:01;98820.75;;;5.19;56.91
54666;BME280;40566;50.006;36.180;2023-10-09T02:40:10;98825.72;;;5.26;56.74
54666;BME280;40566;50.006;36.180;2023-10-09T02:45:16;98826.53;;;5.28;56.66
54666;BME280;40566;50.006;36.180;2023-10-09T02:50:18;98837.59;;;5.29;56.62
54666;BME280;40566;50.006;36.180;2023-10-09T02:55:23;98851.31;;;5.28;56.82
54666;BME280;40566;50.006;36.180;2023-10-09T03:00:26;98852.09;;;5.31;56.69
54666;BME280;40566;50.006;36.180;2023-10-09T03:05:29;98861.63;;;5.25;56.88
54666;BME280;40566;50.006;36.180;2023-10-09T03:10:30;98855.53;;;5.30;56.88
54666;BME280;40566;50.006;36.180;2023-10-09T03:15:34;98858.06;;;5.32;56.87
54666;BME280;40566;50.006;36.180;2023-10-09T03:20:36;98868.34;;;5.30;56.99
54666;BME280;40566;50.006;36.180;2023-10-09T03:25:37;98858.06;;;5.32;56.89
54666;BME280;40566;50.006;36.180;2023-10-09T03:30:38;98875.22;;;5.30;56.99
54666;BME280;40566;50.006;36.180;2023-10-09T03:35:40;98875.38;;;5.21;57.24
54666;BME280;40566;50.006;36.180;2023-10-09T03:40:44;98882.91;;;5.30;57.01
54666;BME280;40566;50.006;36.180;2023-10-09T03:45:48;98890.56;;;5.31;57.16
54666;BME280;40566;50.006;36.180;2023-10-09T03:50:54;98896.69;;;5.24;57.32
54666;BME280;40566;50.006;36.180;2023-10-09T03:56:11;98899.13;;;5.30;57.29
54666;BME280;40566;50.006;36.180;2023-10-09T04:01:14;98905.84;;;5.36;57.25
54666;BME280;40566;50.006;36.180;2023-10-09T04:06:28;98912.56;;;5.43;57.15
54666;BME280;40566;50.006;36.180;2023-10-09T04:11:30;98916.75;;;5.46;57.27
54666;BME280;40566;50.006;36.180;2023-10-09T04:16:33;98919.38;;;5.43;57.39
54666;BME280;40566;50.006;36.180;2023-10-09T04:21:34;98933.16;;;5.37;57.81
54666;BME280;40566;50.006;36.180;2023-10-09T04:26:41;98935.56;;;5.46;57.48
54666;BME280;40566;50.006;36.180;2023-10-09T04:31:45;98943.19;;;5.49;57.55
54666;BME280;40566;50.006;36.180;2023-10-09T04:36:52;98952.53;;;5.53;57.70
54666;BME280;40566;50.006;36.180;2023-10-09T04:42:20;98951.78;;;5.47;57.94
54666;BME280;40566;50.006;36.180;2023-10-09T04:47:36;98968.25;;;5.35;58.36
54666;BME280;40566;50.006;36.180;2023-10-09T04:52:38;98977.69;;;5.33;58.63
54666;BME280;40566;50.006;36.180;2023-10-09T04:57:39;98987.06;;;5.35;58.57
54666;BME280;40566;50.006;36.180;2023-10-09T05:02:43;98980.97;;;5.41;58.44
54666;BME280;40566;50.006;36.180;2023-10-09T05:07:54;98991.81;;;5.55;58.42
54666;BME280;40566;50.006;36.180;2023-10-09T05:12:55;98985.03;;;5.53;58.46
54666;BME280;40566;50.006;36.180;2023-10-09T05:17:59;98991.72;;;5.60;58.54
54666;BME280;40566;50.006;36.180;2023-10-09T05:23:09;98990.84;;;5.61;58.48
54666;BME280;40566;50.006;36.180;2023-10-09T05:28:26;98994.22;;;5.65;58.48
54666;BME280;40566;50.006;36.180;2023-10-09T05:33:48;99004.38;;;5.68;58.69
54666;BME280;40566;50.006;36.180;2023-10-09T05:38:53;99027.22;;;5.82;59.46
54666;BME280;40566;50.006;36.180;2023-10-09T05:43:59;99026.66;;;5.67;59.42
54666;BME280;40566;50.006;36.180;2023-10-09T05:49:18;99040.00;;;5.85;59.77
54666;BME280;40566;50.006;36.180;2023-10-09T05:54:24;99029.78;;;5.82;59.50
54666;BME280;40566;50.006;36.180;2023-10-09T05:59:57;99038.81;;;6.03;59.85
54666;BME280;40566;50.006;36.180;2023-10-09T06:05:33;99047.34;;;6.03;59.42
54666;BME280;40566;50.006;36.180;2023-10-09T06:10:52;99050.63;;;6.10;59.33
54666;BME280;40566;50.006;36.180;2023-10-09T06:16:06;99055.00;;;6.05;59.62
54666;BME280;40566;50.006;36.180;2023-10-09T06:21:21;99060.19;;;6.02;59.77
54666;BME280;40566;50.006;36.180;2023-10-09T06:26:59;99073.22;;;5.92;60.31
54666;BME280;40566;50.006;36.180;2023-10-09T06:32:08;99083.41;;;5.97;60.26
54666;BME280;40566;50.006;36.180;2023-10-09T06:37:26;99086.63;;;6.07;59.98
54666;BME280;40566;50.006;36.180;2023-10-09T06:42:33;99102.19;;;6.41;59.85
54666;BME280;40566;50.006;36.180;2023-10-09T06:47:33;99087.78;;;6.34;59.85
54666;BME280;40566;50.006;36.180;2023-10-09T06:52:42;99108.41;;;6.31;60.02
54666;BME280;40566;50.006;36.180;2023-10-09T06:58:19;99106.63;;;6.34;59.99
54666;BME280;40566;50.006;36.180;2023-10-09T07:03:27;99115.38;;;6.65;59.88
54666;BME280;40566;50.006;36.180;2023-10-09T07:08:36;99120.91;;;6.48;59.69
54666;BME280;40566;50.006;36.180;2023-10-09T07:13:44;99136.81;;;6.64;59.79
54666;BME280;40566;50.006;36.180;2023-10-09T07:18:53;99144.69;;;6.56;60.01
54666;BME280;40566;50.006;36.180;2023-10-09T07:23:55;99150.69;;;6.55;60.02
54666;BME280;40566;50.006;36.180;2023-10-09T07:28:57;99150.09;;;6.44;60.20
54666;BME280;40566;50.006;36.180;2023-10-09T07:34:14;99150.63;;;6.60;59.64
54666;BME280;40566;50.006;36.180;2023-10-09T07:39:44;99167.59;;;6.67;59.64
54666;BME280;40566;50.006;36.180;2023-10-09T07:44:50;99167.41;;;6.76;59.38
54666;BME280;40566;50.006;36.180;2023-10-09T07:49:54;99182.53;;;6.88;59.33
54666;BME280;40566;50.006;36.180;2023-10-09T07:55:00;99191.34;;;7.17;58.63
54666;BME280;40566;50.006;36.180;2023-10-09T08:00:06;99181.88;;;7.19;58.52
54666;BME280;40566;50.006;36.180;2023-10-09T08:05:33;99190.75;;;7.04;58.95
54666;BME280;40566;50.006;36.180;2023-10-09T08:10:33;99198.34;;;7.10;58.83
54666;BME280;40566;50.006;36.180;2023-10-09T08:15:34;99196.03;;;7.37;58.33
54666;BME280;40566;50.006;36.180;2023-10-09T08:20:47;99187.38;;;7.40;58.23
54666;BME280;40566;50.006;36.180;2023-10-09T08:26:03;99207.72;;;7.50;57.36
54666;BME280;40566;50.006;36.180;2023-10-09T08:31:18;99209.06;;;7.65;57.17
54666;BME280;40566;50.006;36.180;2023-10-09T08:36:45;99224.97;;;7.81;56.63
54666;BME280;40566;50.006;36.180;2023-10-09T08:41:55;99213.06;;;7.77;56.23
54666;BME280;40566;50.006;36.180;2023-10-09T08:46:58;99232.16;;;7.68;56.27
54666;BME280;40566;50.006;36.180;2023-10-09T08:51:59;99229.63;;;7.67;56.67
54666;BME280;40566;50.006;36.180;2023-10-09T08:57:03;99243.22;;;7.72;56.21
54666;BME280;40566;50.006;36.180;2023-10-09T09:02:05;99258.06;;;7.62;56.22
54666;BME280;40566;50.006;36.180;2023-10-09T09:07:06;99246.41;;;7.46;56.62
54666;BME280;40566;50.006;36.180;2023-10-09T09:12:22;99253.94;;;7.55;56.28
54666;BME280;40566;50.006;36.180;2023-10-09T09:17:32;99249.94;;;7.78;55.43
54666;BME280;40566;50.006;36.180;2023-10-09T09:22:51;99242.13;;;8.15;54.84
54666;BME280;40566;50.006;36.180;2023-10-09T09:27:52;99257.56;;;8.17;54.32
54666;BME280;40566;50.006;36.180;2023-10-09T09:32:53;99255.63;;;7.92;54.43
54666;BME280;40566;50.006;36.180;2023-10-09T09:38:12;99275.81;;;7.73;54.68
54666;BME280;40566;50.006;36.180;2023-10-09T09:43:17;99276.97;;;7.60;54.97
54666;BME280;40566;50.006;36.180;2023-10-09T09:48:23;99277.94;;;7.55;55.49
54666;BME280;40566;50.006;36.180;2023-10-09T09:53:24;99292.44;;;7.58;55.04
54666;BME280;40566;50.006;36.180;2023-10-09T09:58:26;99304.56;;;7.54;55.04
54666;BME280;40566;50.006;36.180;2023-10-09T10:03:38;99299.25;;;7.22;55.87
54666;BME280;40566;50.006;36.180;2023-10-09T10:08:43;99302.59;;;7.27;56.50
54666;BME280;40566;50.006;36.180;2023-10-09T10:24:00;99321.22;;;8.11;54.70
54666;BME280;40566;50.006;36.180;2023-10-09T10:29:14;99302.81;;;8.27;54.35
54666;BME280;40566;50.006;36.180;2023-10-09T10:34:24;99294.19;;;7.93;55.41
54666;BME280;40566;50.006;36.180;2023-10-09T10:39:26;99315.88;;;8.19;55.04
54666;BME280;40566;50.006;36.180;2023-10-09T10:44:45;99313.41;;;8.16;54.63
54666;BME280;40566;50.006;36.180;2023-10-09T10:49:46;99327.13;;;8.17;54.54
54666;BME280;40566;50.006;36.180;2023-10-09T10:54:49;99344.00;;;7.94;54.87
54666;BME280;40566;50.006;36.180;2023-10-09T11:00:18;99347.06;;;7.72;55.29
54666;BME280;40566;50.006;36.180;2023-10-09T11:05:37;99347.19;;;7.66;55.01
54666;BME280;40566;50.006;36.180;2023-10-09T11:10:40;99350.94;;;7.90;54.34
54666;BME280;40566;50.006;36.180;2023-10-09T11:15:50;99370.41;;;8.02;53.75
54666;BME280;40566;50.006;36.180;2023-10-09T11:21:14;99363.47;;;8.06;53.35
54666;BME280;40566;50.006;36.180;2023-10-09T11:26:15;99372.16;;;8.00;53.57
54666;BME280;40566;50.006;36.180;2023-10-09T11:31:29;99382.78;;;7.86;53.96
54666;BME280;40566;50.006;36.180;2023-10-09T11:36:34;99377.56;;;7.89;53.91
54666;BME280;40566;50.006;36.180;2023-10-09T11:41:39;99381.84;;;7.90;53.41
54666;BME280;40566;50.006;36.180;2023-10-09T11:47:05;99374.28;;;7.83;53.12
54666;BME280;40566;50.006;36.180;2023-10-09T11:52:32;99390.84;;;7.71;53.23
54666;BME280;40566;50.006;36.180;2023-10-09T11:57:36;99400.94;;;7.80;53.08
54666;BME280;40566;50.006;36.180;2023-10-09T12:02:38;99390.81;;;7.72;53.57
54666;BME280;40566;50.006;36.180;2023-10-09T12:07:47;99396.50;;;7.87;52.88
54666;BME280;40566;50.006;36.180;2023-10-09T12:12:57;99408.25;;;7.99;52.44
54666;BME280;40566;50.006;36.180;2023-10-09T12:18:06;99408.06;;;8.08;52.17
54666;BME280;40566;50.006;36.180;2023-10-09T12:23:09;99414.25;;;7.99;52.27
54666;BME280;40566;50.006;36.180;2023-10-09T12:28:15;99430.25;;;7.74;52.68
54666;BME280;40566;50.006;36.180;2023-10-09T12:33:21;99418.78;;;7.47;53.38
54666;BME280;40566;50.006;36.180;2023-10-09T12:38:28;99435.81;;;7.54;53.31
54666;BME280;40566;50.006;36.180;2023-10-09T12:43:32;99435.19;;;7.42;53.58
54666;BME280;40566;50.006;36.180;2023-10-09T12:48:38;99453.31;;;7.37;53.75
54666;BME280;40566;50.006;36.180;2023-10-09T12:53:38;99446.88;;;7.14;54.13
54666;BME280;40566;50.006;36.180;2023-10-09T12:58:41;99463.09;;;7.18;53.72
54666;BME280;40566;50.006;36.180;2023-10-09T13:03:52;99459.59;;;7.22;53.66
54666;BME280;40566;50.006;36.180;2023-10-09T13:08:53;99457.94;;;7.18;53.65
54666;BME280;40566;50.006;36.180;2023-10-09T13:13:56;99465.47;;;7.29;53.33
54666;BME280;40566;50.006;36.180;2023-10-09T13:19:03;99468.91;;;7.28;52.80
54666;BME280;40566;50.006;36.180;2023-10-09T13:24:10;99447.09;;;7.02;53.59
54666;BME280;40566;50.006;36.180;2023-10-09T13:29:14;99465.78;;;7.12;53.03
54666;BME280;40566;50.006;36.180;2023-10-09T13:34:22;99466.50;;;7.19;52.49
54666;BME280;40566;50.006;36.180;2023-10-09T13:39:29;99479.19;;;7.29;52.53
54666;BME280;40566;50.006;36.180;2023-10-09T13:44:32;99463.66;;;7.34;52.16
54666;BME280;40566;50.006;36.180;2023-10-09T13:49:33;99457.84;;;7.24;52.58
54666;BME280;40566;50.006;36.180;2023-10-09T13:54:34;99476.50;;;7.34;52.32
54666;BME280;40566;50.006;36.180;2023-10-09T13:59:36;99465.47;;;7.29;52.01
54666;BME280;40566;50.006;36.180;2023-10-09T14:04:36;99483.69;;;7.17;52.12
54666;BME280;40566;50.006;36.180;2023-10-09T14:09:37;99483.75;;;7.13;52.11
54666;BME280;40566;50.006;36.180;2023-10-09T14:14:44;99485.25;;;7.25;51.50
54666;BME280;40566;50.006;36.180;2023-10-09T14:19:48;99482.81;;;7.19;51.76
54666;BME280;40566;50.006;36.180;2023-10-09T14:24:48;99491.47;;;7.15;51.70
54666;BME280;40566;50.006;36.180;2023-10-09T14:29:55;99487.97;;;7.18;51.69
54666;BME280;40566;50.006;36.180;2023-10-09T14:34:57;99492.44;;;7.08;52.18
54666;BME280;40566;50.006;36.180;2023-10-09T14:40:13;99489.59;;;7.23;51.71
54666;BME280;40566;50.006;36.180;2023-10-09T14:45:13;99504.22;;;7.21;52.10
54666;BME280;40566;50.006;36.180;2023-10-09T14:50:17;99511.16;;;7.14;52.00
54666;BME280;40566;50.006;36.180;2023-10-09T14:55:22;99507.78;;;7.12;51.89
54666;BME280;40566;50.006;36.180;2023-10-09T15:00:29;99523.28;;;7.08;51.95
54666;BME280;40566;50.006;36.180;2023-10-09T15:05:34;99524.25;;;7.02;51.88
54666;BME280;40566;50.006;36.180;2023-10-09T15:10:34;99520.34;;;6.80;52.58
54666;BME280;40566;50.006;36.180;2023-10-09T15:15:40;99529.69;;;6.84;52.52
54666;BME280;40566;50.006;36.180;2023-10-09T15:20:41;99534.03;;;6.82;52.46
54666;BME280;40566;50.006;36.180;2023-10-09T15:25:41;99528.19;;;6.70;52.57
54666;BME280;40566;50.006;36.180;2023-10-09T15:30:45;99543.56;;;6.73;52.68
54666;BME280;40566;50.006;36.180;2023-10-09T15:35:47;99538.69;;;6.57;53.01
54666;BME280;40566;50.006;36.180;2023-10-09T15:40:50;99538.78;;;6.50;53.23
54666;BME280;40566;50.006;36.180;2023-10-09T15:45:50;99560.06;;;6.59;53.42
54666;BME280;40566;50.006;36.180;2023-10-09T15:50:51;99549.16;;;6.41;53.63
54666;BME280;40566;50.006;36.180;2023-10-09T15:55:52;99554.50;;;6.27;53.87
54666;BME280;40566;50.006;36.180;2023-10-09T16:00:57;99564.75;;;6.30;54.08
54666;BME280;40566;50.006;36.180;2023-10-09T16:06:01;99554.66;;;6.15;54.12
54666;BME280;40566;50.006;36.180;2023-10-09T16:11:03;99577.66;;;6.24;54.29
54666;BME280;40566;50.006;36.180;2023-10-09T16:16:04;99565.88;;;6.08;54.60
54666;BME280;40566;50.006;36.180;2023-10-09T16:21:08;99568.59;;;5.95;54.70
54666;BME280;40566;50.006;36.180;2023-10-09T16:26:12;99568.63;;;5.89;54.72
54666;BME280;40566;50.006;36.180;2023-10-09T16:31:13;99568.66;;;5.86;54.76
54666;BME280;40566;50.006;36.180;2023-10-09T16:36:19;99574.66;;;5.87;54.84
54666;BME280;40566;50.006;36.180;2023-10-09T16:41:21;99579.91;;;5.78;54.88
54666;BME280;40566;50.006;36.180;2023-10-09T16:46:26;99585.84;;;5.81;55.51
54666;BME280;40566;50.006;36.180;2023-10-09T16:51:26;99590.31;;;5.64;55.51
54666;BME280;40566;50.006;36.180;2023-10-09T16:56:27;99595.56;;;5.53;55.65
54666;BME280;40566;50.006;36.180;2023-10-09T17:01:32;99593.00;;;5.51;55.77
54666;BME280;40566;50.006;36.180;2023-10-09T17:06:33;99602.31;;;5.62;55.39
54666;BME280;40566;50.006;36.180;2023-10-09T17:11:35;99609.16;;;5.61;55.61
54666;BME280;40566;50.006;36.180;2023-10-09T17:16:36;99614.31;;;5.56;55.70
54666;BME280;40566;50.006;36.180;2023-10-09T17:21:41;99616.09;;;5.50;55.82
54666;BME280;40566;50.006;36.180;2023-10-09T17:26:42;99619.56;;;5.44;56.07
54666;BME280;40566;50.006;36.180;2023-10-09T17:31:45;99625.59;;;5.40;56.02
54666;BME280;40566;50.006;36.180;2023-10-09T17:36:46;99626.50;;;5.33;56.14
54666;BME280;40566;50.006;36.180;2023-10-09T17:41:49;99633.34;;;5.31;56.14
54666;BME280;40566;50.006;36.180;2023-10-09T17:46:50;99632.50;;;5.29;56.29
54666;BME280;40566;50.006;36.180;2023-10-09T17:51:51;99639.41;;;5.25;56.30
54666;BME280;40566;50.006;36.180;2023-10-09T17:56:53;99643.72;;;5.17;56.63
54666;BME280;40566;50.006;36.180;2023-10-09T18:01:56;99654.84;;;5.14;56.52
54666;BME280;40566;50.006;36.180;2023-10-09T18:06:57;99664.28;;;5.11;56.76
54666;BME280;40566;50.006;36.180;2023-10-09T18:11:58;99662.59;;;5.07;56.74
54666;BME280;40566;50.006;36.180;2023-10-09T18:17:01;99666.94;;;5.00;56.94
54666;BME280;40566;50.006;36.180;2023-10-09T18:22:02;99674.63;;;5.00;56.85
54666;BME280;40566;50.006;36.180;2023-10-09T18:27:04;99673.78;;;4.95;57.10
54666;BME280;40566;50.006;36.180;2023-10-09T18:32:05;99670.41;;;4.87;57.13
54666;BME280;40566;50.006;36.180;2023-10-09T18:37:05;99675.53;;;4.84;57.32
54666;BME280;40566;50.006;36.180;2023-10-09T18:42:08;99678.97;;;4.80;57.26
54666;BME280;40566;50.006;36.180;2023-10-09T18:47:08;99690.88;;;4.93;57.84
54666;BME280;40566;50.006;36.180;2023-10-09T18:52:09;99678.19;;;4.74;57.84
54666;BME280;40566;50.006;36.180;2023-10-09T18:57:10;99670.50;;;4.71;57.70
54666;BME280;40566;50.006;36.180;2023-10-09T19:02:12;99667.97;;;4.65;57.88
54666;BME280;40566;50.006;36.180;2023-10-09T19:07:14;99668.00;;;4.59;58.07
54666;BME280;40566;50.006;36.180;2023-10-09T19:12:15;99677.41;;;4.57;57.95
54666;BME280;40566;50.006;36.180;2023-10-09T19:17:15;99673.16;;;4.51;58.11
54666;BME280;40566;50.006;36.180;2023-10-09T19:22:19;99682.56;;;4.48;58.17
54666;BME280;40566;50.006;36.180;2023-10-09T19:27:20;99688.56;;;4.45;58.20
54666;BME280;40566;50.006;36.180;2023-10-09T19:32:25;99691.97;;;4.43;58.29
54666;BME280;40566;50.006;36.180;2023-10-09T19:37:26;99680.03;;;4.40;58.24
54666;BME280;40566;50.006;36.180;2023-10-09T19:42:27;99689.44;;;4.43;58.26
54666;BME280;40566;50.006;36.180;2023-10-09T19:47:27;99682.59;;;4.35;58.30
54666;BME280;40566;50.006;36.180;2023-10-09T19:52:28;99681.78;;;4.36;58.25
54666;BME280;40566;50.006;36.180;2023-10-09T19:57:30;99692.88;;;4.31;58.49
54666;BME280;40566;50.006;36.180;2023-10-09T20:02:33;99686.06;;;4.27;58.48
54666;BME280;40566;50.006;36.180;2023-10-09T20:07:36;99685.22;;;4.25;58.68
54666;BME280;40566;50.006;36.180;2023-10-09T20:12:38;99686.06;;;4.22;58.80
54666;BME280;40566;50.006;36.180;2023-10-09T20:17:41;99688.63;;;4.17;58.64
54666;BME280;40566;50.006;36.180;2023-10-09T20:22:45;99691.19;;;4.16;58.67
54666;BME280;40566;50.006;36.180;2023-10-09T20:27:46;99685.22;;;4.14;58.53
54666;BME280;40566;50.006;36.180;2023-10-09T20:32:48;99681.81;;;4.12;58.70
54666;BME280;40566;50.006;36.180;2023-10-09T20:37:48;99687.81;;;4.06;58.69
54666;BME280;40566;50.006;36.180;2023-10-09T20:42:50;99693.81;;;3.99;59.05
54666;BME280;40566;50.006;36.180;2023-10-09T20:47:51;99697.22;;;3.93;59.00
54666;BME280;40566;50.006;36.180;2023-10-09T20:52:59;99696.41;;;3.85;59.07
54666;BME280;40566;50.006;36.180;2023-10-09T20:57:59;99699.81;;;3.87;59.02
54666;BME280;40566;50.006;36.180;2023-10-09T21:03:00;99700.66;;;3.80;59.22
54666;BME280;40566;50.006;36.180;2023-10-09T21:08:00;99691.28;;;3.76;59.02
54666;BME280;40566;50.006;36.180;2023-10-09T21:13:01;99695.56;;;3.75;58.95
54666;BME280;40566;50.006;36.180;2023-10-09T21:18:01;99697.25;;;3.69;59.35
54666;BME280;40566;50.006;36.180;2023-10-09T21:23:02;99697.25;;;3.64;59.20
54666;BME280;40566;50.006;36.180;2023-10-09T21:28:05;99685.31;;;3.58;59.37
54666;BME280;40566;50.006;36.180;2023-10-09T21:33:06;99695.56;;;3.55;59.29
54666;BME280;40566;50.006;36.180;2023-10-09T21:38:07;99697.25;;;3.50;59.54
54666;BME280;40566;50.006;36.180;2023-10-09T21:43:08;99691.31;;;3.44;59.57
54666;BME280;40566;50.006;36.180;2023-10-09T21:48:09;99704.06;;;3.41;59.53
54666;BME280;40566;50.006;36.180;2023-10-09T21:53:10;99704.91;;;3.35;59.70
54666;BME280;40566;50.006;36.180;2023-10-09T21:58:11;99707.47;;;3.30;59.65
54666;BME280;40566;50.006;36.180;2023-10-09T22:03:11;99708.31;;;3.31;59.59
54666;BME280;40566;50.006;36.180;2023-10-09T22:08:13;99707.47;;;3.29;59.82
54666;BME280;40566;50.006;36.180;2023-10-09T22:13:14;99706.63;;;3.30;59.65
54666;BME280;40566;50.006;36.180;2023-10-09T22:18:15;99710.03;;;3.29;59.74
54666;BME280;40566;50.006;36.180;2023-10-09T22:23:24;99715.97;;;3.29;59.85
54666;BME280;40566;50.006;36.180;2023-10-09T22:28:35;99721.09;;;3.29;59.68
54666;BME280;40566;50.006;36.180;2023-10-09T22:33:41;99727.09;;;3.30;59.73
54666;BME280;40566;50.006;36.180;2023-10-09T22:38:52;99721.97;;;3.27;59.62
54666;BME280;40566;50.006;36.180;2023-10-09T22:43:56;99722.81;;;3.35;59.68
54666;BME280;40566;50.006;36.180;2023-10-09T22:48:59;99724.50;;;3.31;59.70
54666;BME280;40566;50.006;36.180;2023-10-09T22:54:12;99723.66;;;3.26;59.76
54666;BME280;40566;50.006;36.180;2023-10-09T22:59:23;99729.59;;;3.24;59.87
54666;BME280;40566;50.006;36.180;2023-10-09T23:04:26;99730.47;;;3.23;59.96
54666;BME280;40566;50.006;36.180;2023-10-09T23:09:39;99731.28;;;3.09;60.13
54666;BME280;40566;50.006;36.180;2023-10-09T23:14:50;99730.44;;;3.04;60.00
54666;BME280;40566;50.006;36.180;2023-10-09T23:19:52;99729.53;;;2.96;60.27
54666;BME280;40566;50.006;36.180;2023-10-09T23:24:56;99728.69;;;2.95;60.15
54666;BME280;40566;50.006;36.180;2023-10-09T23:30:14;99727.00;;;2.99;60.06
54666;BME280;40566;50.006;36.180;2023-10-09T23:35:23;99734.66;;;2.91;60.30
54666;BME280;40566;50.006;36.180;2023-10-09T23:40:44;99726.13;;;2.83;60.38
54666;BME280;40566;50.006;36.180;2023-10-09T23:45:45;99725.28;;;2.83;60.35
54666;BME280;40566;50.006;36.180;2023-10-09T23:50:46;99726.13;;;2.88;60.11
54666;BME280;40566;50.006;36.180;2023-10-09T23:55:48;99726.97;;;2.87;60.21
